Terminal Aerodrome Forecast
Issued by NWS

Home | Current Version | Previous Version | Text Only | Print | Product List | Glossary On
Versions: 1 2 3 4 5 6 7 8 9 10 11 12 13 14 15 16 17 18 19 20 21 22 23 24
735
FTUS43 KAPX 290318 AAA
TAFAPN
TAF AMD
KAPN 290318Z 2903/2924 17004KT P6SM VCSH SCT060 BKN140
     FM290400 19006KT P6SM VCSH SCT060 BKN130 WS015/19030KT
     FM290500 19005KT P6SM BKN150 WS015/19030KT
     FM291100 18005KT P6SM BKN200
     FM291500 20007KT P6SM SCT060
     FM291700 20011KT P6SM SCT060
     FM291800 20013G21KT P6SM VCSH SCT060
     FM292300 23008KT P6SM VCSH BKN050=

USA.gov is the U.S. government's official web portal to all federal, state and local government web resources and services.